Monte Toledo — CQRA — position and weather

sailwx.info

Track history (hours):
 
Tides and Currents Weather Stations Pressure Air Temp Water Temp Dewpoint Dewpoint Depression Visibility Wind Speed Wind Dir Waves Ship Positions

Monte Toledo

Last reported at 2015-Jul-12 10:07 UTC. Time now 2015-Jul-31 17:29 UTC.
Position N 27°41' W 013°57'.
Warning: this ship's position is 19 days out of date.

Length 274 m; draft 9 m.

Type: Tanker. MMSI: 255740000.

Date/timePositionNaut miles runAvg speedWind from/ knotsBaromVisibWave heightAir tempDewpointWater temp
2015-Jul-12 10:07N 27°41' W 013°57'915.1
2015-Jul-12 09:33N 27°47' W 013°51'1514.9
2015-Jul-12 08:33N 27°59' W 013°41'1414.3
2015-Jul-12 07:33N 28°10' W 013°31'2914.5
2015-Jul-12 05:33N 28°35' W 013°13'1414.4
2015-Jul-12 04:33N 28°47' W 013°04'1514.6
2015-Jul-12 03:32N 28°60' W 012°55'1414.6
2015-Jul-12 02:33N 29°11' W 012°46'3014.6
2015-Jul-12 00:32N 29°36' W 012°28'1714.5
2015-Jul-11 23:20N 29°51' W 012°17'1114.7
2015-Jul-11 22:33N 30°00' W 012°09'1514.7
2015-Jul-11 21:33N 30°13' W 012°00'1514.9
2015-Jul-11 20:33N 30°25' W 011°51'1514.9
2015-Jul-11 19:33N 30°38' W 011°42'1515.3
2015-Jul-11 18:33N 30°51' W 011°32'1615.5
2015-Jul-11 17:32N 31°04' W 011°22'1515.2
2015-Jul-11 16:33N 31°17' W 011°13'1514.5
2015-Jul-11 15:33N 31°29' W 011°04'1414.3
2015-Jul-11 14:33N 31°41' W 010°55'1714.8
2015-Jul-11 13:25N 31°55' W 010°44'1414.9
2015-Jul-11 12:28N 32°07' W 010°35'1514.9
2015-Jul-11 11:27N 32°20' W 010°25'10914.7
2015-Jul-11 04:04N 33°45' W 009°05'2414.8
2015-Jul-11 02:27N 34°01' W 008°44'1714.7
2015-Jul-11 01:19N 34°12' W 008°29'1215.1
2015-Jul-11 00:33N 34°20' W 008°18'1514.9
2015-Jul-10 23:32N 34°30' W 008°05'1514.7
2015-Jul-10 22:32N 34°40' W 007°51'1514.5
2015-Jul-10 21:30N 34°50' W 007°38'3114.8
2015-Jul-10 19:25N 35°09' W 007°08'1414.9
2015-Jul-10 18:31N 35°17' W 006°55'1614.9
2015-Jul-10 17:25N 35°28' W 006°40'1714.7
2015-Jul-10 16:16N 35°39' W 006°24'1115.2
2015-Jul-10 15:32N 35°46' W 006°13'1414.3
2015-Jul-10 14:33N 35°55' W 006°00'1312.7
2015-Jul-10 13:33N 35°57' W 005°45'1111.3
2015-Jul-10 12:33N 35°59' W 005°31'9 9.4
2015-Jul-10 11:33N 36°06' W 005°23'4 4.1
2015-Jul-10 10:31N 36°10' W 005°25'0 0.3
2015-Jul-10 09:30N 36°10' W 005°25'0 0.0
2015-Jul-09 09:13N 36°10' W 005°25'0 0.2
2015-Jul-09 08:34N 36°10' W 005°25'0 0.0
2015-Jul-09 07:32N 36°10' W 005°25'1 0.7
2015-Jul-09 06:33N 36°09' W 005°25'0 0.1
2015-Jul-09 05:33N 36°09' W 005°25'0 0.1
2015-Jul-09 04:33N 36°09' W 005°25'0 0.2
2015-Jul-09 03:33N 36°09' W 005°25'0 0.3
2015-Jul-09 02:34N 36°09' W 005°24'0 0.1
2015-Jul-09 01:33N 36°09' W 005°24'0 0.0
2015-Jul-09 00:33N 36°09' W 005°24'0 0.0
2015-Jul-08 23:34N 36°09' W 005°24'0 0.0
2015-Jul-08 22:27N 36°09' W 005°24'0 0.0
2015-Jul-08 21:33N 36°09' W 005°24'0 0.0
2015-Jul-08 20:26N 36°09' W 005°24'0 0.1
2015-Jul-08 19:33N 36°09' W 005°24'0 0.2
2015-Jul-08 18:33N 36°09' W 005°25'0 0.2
2015-Jul-08 17:33N 36°09' W 005°25'0 0.0
2015-Jul-08 16:33N 36°09' W 005°25'0 0.1
2015-Jul-08 15:32N 36°09' W 005°25'0 0.2
2015-Jul-08 14:32N 36°09' W 005°24'0 0.1
2015-Jul-08 13:34N 36°09' W 005°24'128 8.5
2015-Jul-07 22:31N 36°13' W 002°46'1812.1
2015-Jul-07 21:04N 36°16' W 002°25'612.0
2015-Jul-07 20:33N 36°18' W 002°17'1211.9
2015-Jul-07 19:33N 36°20' W 002°03'1211.8
2015-Jul-07 18:33N 36°23' W 001°48'1212.1
2015-Jul-07 17:34N 36°25' W 001°34'1212.4
2015-Jul-07 16:33N 36°27' W 001°19'1312.5
2015-Jul-07 15:30N 36°30' W 001°02'1212.5
2015-Jul-07 14:33N 36°32' W 000°48'1412.0
2015-Jul-07 13:24N 36°35' W 000°31'1112.6
2015-Jul-07 12:33N 36°38' W 000°18'1312.5
2015-Jul-07 11:31N 36°41' W 000°03'1312.5
2015-Jul-07 10:30N 36°43' E 000°13'1212.5
2015-Jul-07 09:31N 36°46' E 000°28'1312.6
2015-Jul-07 08:31N 36°49' E 000°43'1212.7
2015-Jul-07 07:33N 36°51' E 000°58'1312.5
2015-Jul-07 06:32N 36°53' E 001°14'1513.0
2015-Jul-07 05:22N 36°56' E 001°32'1213.3
2015-Jul-07 04:27N 36°59' E 001°47'1213.2
2015-Jul-07 03:33N 37°01' E 002°02'1312.7
2015-Jul-07 02:33N 37°04' E 002°18'1812.3
2015-Jul-07 01:06N 37°08' E 002°39'5612.1
2015-Jul-06 20:25N 37°17' E 003°49'24413.0
2015-Jul-06 01:33N 37°53' E 008°54'1413.5
2015-Jul-06 00:32N 37°53' E 009°12'1313.4
2015-Jul-05 23:33N 37°52' E 009°28'1413.7
2015-Jul-05 22:32N 37°52' E 009°46'1313.4
2015-Jul-05 21:33N 37°49' E 010°02'2713.6
2015-Jul-05 19:33N 37°39' E 010°34'1413.6
2015-Jul-05 18:33N 37°34' E 010°50'1313.1
2015-Jul-05 17:33N 37°29' E 011°05'1313.2
2015-Jul-05 16:33N 37°23' E 011°20'1413.6
2015-Jul-05 15:33N 37°17' E 011°36'1514.7
2015-Jul-05 14:33N 37°10' E 011°52'1414.4
2015-Jul-05 13:33N 37°03' E 012°07'1414.3
2015-Jul-05 12:33N 36°57' E 012°23'1414.3
2015-Jul-05 11:33N 36°52' E 012°40'1414.2
2015-Jul-05 10:33N 36°47' E 012°57'1414.2
2015-Jul-05 09:33N 36°40' E 013°12'1414.1
2015-Jul-05 08:33N 36°35' E 013°29'1414.2
2015-Jul-05 07:33N 36°30' E 013°45'1413.8
2015-Jul-05 06:33N 36°25' E 014°01'1313.3
2015-Jul-05 05:34N 36°20' E 014°16'1413.6
2015-Jul-05 04:34N 36°14' E 014°32'1413.7
2015-Jul-05 03:34N 36°09' E 014°48'1513.6
2015-Jul-05 02:29N 36°04' E 015°05'1213.4
2015-Jul-05 01:33N 35°60' E 015°19'1413.6
2015-Jul-05 00:33N 35°55' E 015°35'1713.0
2015-Jul-04 23:16N 35°48' E 015°53'21212.6
2015-Jul-04 06:32N 34°28' E 019°53'  
Track history (hours):
 
Tides and Currents Weather Stations Pressure Air Temp Water Temp Dewpoint Dewpoint Depression Visibility Wind Speed Wind Dir Waves Ship Positions

Monte Toledo

Last reported at 2015-Jul-12 10:07 UTC. Time now 2015-Jul-31 17:29 UTC.
Position N 27°41' W 013°57'.
Warning: this ship's position is 19 days out of date.

Length 274 m; draft 9 m.

Type: Tanker. MMSI: 255740000.

Date/timePositionNaut miles runAvg speedWind from/ knotsBaromVisibWave heightAir tempDewpointWater temp
2015-Jul-12 10:07N 27°41' W 013°57'915.1
2015-Jul-12 09:33N 27°47' W 013°51'1514.9
2015-Jul-12 08:33N 27°59' W 013°41'1414.3
2015-Jul-12 07:33N 28°10' W 013°31'2914.5
2015-Jul-12 05:33N 28°35' W 013°13'1414.4
2015-Jul-12 04:33N 28°47' W 013°04'1514.6
2015-Jul-12 03:32N 28°60' W 012°55'1414.6
2015-Jul-12 02:33N 29°11' W 012°46'3014.6
2015-Jul-12 00:32N 29°36' W 012°28'1714.5
2015-Jul-11 23:20N 29°51' W 012°17'1114.7
2015-Jul-11 22:33N 30°00' W 012°09'1514.7
2015-Jul-11 21:33N 30°13' W 012°00'1514.9
2015-Jul-11 20:33N 30°25' W 011°51'1514.9
2015-Jul-11 19:33N 30°38' W 011°42'1515.3
2015-Jul-11 18:33N 30°51' W 011°32'1615.5
2015-Jul-11 17:32N 31°04' W 011°22'1515.2
2015-Jul-11 16:33N 31°17' W 011°13'1514.5
2015-Jul-11 15:33N 31°29' W 011°04'1414.3
2015-Jul-11 14:33N 31°41' W 010°55'1714.8
2015-Jul-11 13:25N 31°55' W 010°44'1414.9
2015-Jul-11 12:28N 32°07' W 010°35'1514.9
2015-Jul-11 11:27N 32°20' W 010°25'10914.7
2015-Jul-11 04:04N 33°45' W 009°05'2414.8
2015-Jul-11 02:27N 34°01' W 008°44'1714.7
2015-Jul-11 01:19N 34°12' W 008°29'1215.1
2015-Jul-11 00:33N 34°20' W 008°18'1514.9
2015-Jul-10 23:32N 34°30' W 008°05'1514.7
2015-Jul-10 22:32N 34°40' W 007°51'1514.5
2015-Jul-10 21:30N 34°50' W 007°38'3114.8
2015-Jul-10 19:25N 35°09' W 007°08'1414.9
2015-Jul-10 18:31N 35°17' W 006°55'1614.9
2015-Jul-10 17:25N 35°28' W 006°40'1714.7
2015-Jul-10 16:16N 35°39' W 006°24'1115.2
2015-Jul-10 15:32N 35°46' W 006°13'1414.3
2015-Jul-10 14:33N 35°55' W 006°00'1312.7
2015-Jul-10 13:33N 35°57' W 005°45'1111.3
2015-Jul-10 12:33N 35°59' W 005°31'9 9.4
2015-Jul-10 11:33N 36°06' W 005°23'4 4.1
2015-Jul-10 10:31N 36°10' W 005°25'0 0.3
2015-Jul-10 09:30N 36°10' W 005°25'0 0.0
2015-Jul-09 09:13N 36°10' W 005°25'0 0.2
2015-Jul-09 08:34N 36°10' W 005°25'0 0.0
2015-Jul-09 07:32N 36°10' W 005°25'1 0.7
2015-Jul-09 06:33N 36°09' W 005°25'0 0.1
2015-Jul-09 05:33N 36°09' W 005°25'0 0.1
2015-Jul-09 04:33N 36°09' W 005°25'0 0.2
2015-Jul-09 03:33N 36°09' W 005°25'0 0.3
2015-Jul-09 02:34N 36°09' W 005°24'0 0.1
2015-Jul-09 01:33N 36°09' W 005°24'0 0.0
2015-Jul-09 00:33N 36°09' W 005°24'0 0.0
2015-Jul-08 23:34N 36°09' W 005°24'0 0.0
2015-Jul-08 22:27N 36°09' W 005°24'0 0.0
2015-Jul-08 21:33N 36°09' W 005°24'0 0.0
2015-Jul-08 20:26N 36°09' W 005°24'0 0.1
2015-Jul-08 19:33N 36°09' W 005°24'0 0.2
2015-Jul-08 18:33N 36°09' W 005°25'0 0.2
2015-Jul-08 17:33N 36°09' W 005°25'0 0.0
2015-Jul-08 16:33N 36°09' W 005°25'0 0.1
2015-Jul-08 15:32N 36°09' W 005°25'0 0.2
2015-Jul-08 14:32N 36°09' W 005°24'0 0.1
2015-Jul-08 13:34N 36°09' W 005°24'128 8.5
2015-Jul-07 22:31N 36°13' W 002°46'1812.1
2015-Jul-07 21:04N 36°16' W 002°25'612.0
2015-Jul-07 20:33N 36°18' W 002°17'1211.9
2015-Jul-07 19:33N 36°20' W 002°03'1211.8
2015-Jul-07 18:33N 36°23' W 001°48'1212.1
2015-Jul-07 17:34N 36°25' W 001°34'1212.4
2015-Jul-07 16:33N 36°27' W 001°19'1312.5
2015-Jul-07 15:30N 36°30' W 001°02'1212.5
2015-Jul-07 14:33N 36°32' W 000°48'1412.0
2015-Jul-07 13:24N 36°35' W 000°31'1112.6
2015-Jul-07 12:33N 36°38' W 000°18'1312.5
2015-Jul-07 11:31N 36°41' W 000°03'1312.5
2015-Jul-07 10:30N 36°43' E 000°13'1212.5
2015-Jul-07 09:31N 36°46' E 000°28'1312.6
2015-Jul-07 08:31N 36°49' E 000°43'1212.7
2015-Jul-07 07:33N 36°51' E 000°58'1312.5
2015-Jul-07 06:32N 36°53' E 001°14'1513.0
2015-Jul-07 05:22N 36°56' E 001°32'1213.3
2015-Jul-07 04:27N 36°59' E 001°47'1213.2
2015-Jul-07 03:33N 37°01' E 002°02'1312.7
2015-Jul-07 02:33N 37°04' E 002°18'1812.3
2015-Jul-07 01:06N 37°08' E 002°39'5612.1
2015-Jul-06 20:25N 37°17' E 003°49'24413.0
2015-Jul-06 01:33N 37°53' E 008°54'1413.5
2015-Jul-06 00:32N 37°53' E 009°12'1313.4
2015-Jul-05 23:33N 37°52' E 009°28'1413.7
2015-Jul-05 22:32N 37°52' E 009°46'1313.4
2015-Jul-05 21:33N 37°49' E 010°02'2713.6
2015-Jul-05 19:33N 37°39' E 010°34'1413.6
2015-Jul-05 18:33N 37°34' E 010°50'1313.1
2015-Jul-05 17:33N 37°29' E 011°05'1313.2
2015-Jul-05 16:33N 37°23' E 011°20'1413.6
2015-Jul-05 15:33N 37°17' E 011°36'1514.7
2015-Jul-05 14:33N 37°10' E 011°52'1414.4
2015-Jul-05 13:33N 37°03' E 012°07'1414.3
2015-Jul-05 12:33N 36°57' E 012°23'1414.3
2015-Jul-05 11:33N 36°52' E 012°40'1414.2
2015-Jul-05 10:33N 36°47' E 012°57'1414.2
2015-Jul-05 09:33N 36°40' E 013°12'1414.1
2015-Jul-05 08:33N 36°35' E 013°29'1414.2
2015-Jul-05 07:33N 36°30' E 013°45'1413.8
2015-Jul-05 06:33N 36°25' E 014°01'1313.3
2015-Jul-05 05:34N 36°20' E 014°16'1413.6
2015-Jul-05 04:34N 36°14' E 014°32'1413.7
2015-Jul-05 03:34N 36°09' E 014°48'1513.6
2015-Jul-05 02:29N 36°04' E 015°05'1213.4
2015-Jul-05 01:33N 35°60' E 015°19'1413.6
2015-Jul-05 00:33N 35°55' E 015°35'1713.0
2015-Jul-04 23:16N 35°48' E 015°53'21212.6
2015-Jul-04 06:32N 34°28' E 019°53'  

Dump ship's entire track history